createdAt,value
2022-12-02T00:00:59.180Z,4.34
2022-12-02T00:01:59.161Z,4.25
2022-12-02T00:02:59.244Z,4.24
2022-12-02T00:03:59.219Z,4.37
2022-12-02T00:04:59.080Z,4.28
2022-12-02T00:05:59.047Z,4.29
2022-12-02T00:06:59.027Z,4.33
2022-12-02T00:07:59.039Z,4.34
2022-12-02T00:08:58.976Z,4.29
2022-12-02T00:09:58.961Z,4.36
2022-12-02T00:10:58.921Z,4.32
2022-12-02T00:11:58.921Z,4.36
2022-12-02T00:12:58.873Z,4.34
2022-12-02T00:13:58.838Z,4.32
2022-12-02T00:14:58.819Z,4.37
2022-12-02T00:15:58.860Z,4.50
2022-12-02T00:16:58.773Z,4.37
2022-12-02T00:17:58.737Z,4.33
2022-12-02T00:18:58.723Z,4.34
2022-12-02T00:19:58.684Z,4.33
2022-12-02T00:20:58.672Z,4.40
2022-12-02T00:21:58.634Z,4.39
2022-12-02T00:22:58.644Z,4.40
2022-12-02T00:23:58.589Z,4.36
2022-12-02T00:24:58.560Z,4.46
2022-12-02T00:25:58.551Z,4.43
2022-12-02T00:26:58.508Z,4.40
2022-12-02T00:27:58.487Z,4.40
2022-12-02T00:28:58.462Z,4.42
2022-12-02T00:29:58.434Z,4.40
2022-12-02T00:30:58.414Z,4.40
2022-12-02T00:31:58.474Z,4.36
2022-12-02T00:32:58.376Z,4.50
2022-12-02T00:33:58.325Z,4.44
2022-12-02T00:34:58.304Z,4.37
2022-12-02T00:35:58.294Z,4.40
2022-12-02T00:36:58.251Z,4.39
2022-12-02T00:37:58.222Z,4.39
2022-12-02T00:38:58.203Z,4.36
2022-12-02T00:39:58.195Z,4.42
2022-12-02T00:40:58.149Z,4.37
2022-12-02T00:41:58.118Z,4.39
2022-12-02T00:42:58.099Z,4.42
2022-12-02T00:43:58.095Z,4.34
2022-12-02T00:44:58.043Z,4.43
2022-12-02T00:45:58.062Z,4.42
2022-12-02T00:46:58.003Z,4.40
2022-12-02T00:47:57.960Z,4.40
2022-12-02T00:48:57.942Z,4.39
2022-12-02T00:49:57.927Z,4.37
2022-12-02T00:50:57.890Z,4.46
2022-12-02T00:51:57.856Z,4.34
2022-12-02T00:52:57.836Z,4.40
2022-12-02T00:53:57.805Z,4.40
2022-12-02T00:54:57.787Z,4.40
2022-12-02T00:55:57.773Z,4.39
2022-12-02T00:56:57.735Z,4.34
2022-12-02T00:57:57.702Z,4.34
2022-12-02T00:58:57.683Z,4.40
2022-12-02T00:59:57.652Z,4.36
2022-12-02T01:00:57.660Z,4.39
2022-12-02T01:01:57.632Z,4.37
2022-12-02T01:02:57.576Z,4.37
2022-12-02T01:03:57.557Z,4.37
2022-12-02T01:04:57.525Z,4.37
2022-12-02T01:05:57.507Z,4.36
2022-12-02T01:06:57.480Z,4.40
2022-12-02T01:07:57.491Z,4.40
2022-12-02T01:08:57.430Z,4.43
2022-12-02T01:09:57.449Z,4.37
2022-12-02T01:10:57.376Z,4.36
2022-12-02T01:11:57.347Z,4.40
2022-12-02T01:12:57.323Z,4.39
2022-12-02T01:13:57.294Z,4.32
2022-12-02T01:14:57.276Z,4.33
2022-12-02T01:15:57.247Z,4.32
2022-12-02T01:16:57.306Z,4.39
2022-12-02T01:17:57.194Z,4.36
2022-12-02T01:18:57.174Z,4.36
2022-12-02T01:19:57.146Z,4.37
2022-12-02T01:20:57.119Z,4.37
2022-12-02T01:21:57.094Z,4.32
2022-12-02T01:22:57.063Z,4.40
2022-12-02T01:23:57.047Z,4.40
2022-12-02T01:24:57.022Z,4.40
2022-12-02T01:25:56.990Z,4.51
2022-12-02T01:26:56.957Z,4.42
2022-12-02T01:27:56.951Z,4.39
2022-12-02T01:28:56.925Z,4.39
2022-12-02T01:29:56.887Z,4.37
2022-12-02T01:30:56.853Z,4.47
2022-12-02T01:31:56.868Z,4.39
2022-12-02T01:32:56.806Z,4.34
2022-12-02T01:33:56.787Z,4.39
2022-12-02T01:34:56.758Z,4.39
2022-12-02T01:35:56.727Z,4.40
2022-12-02T01:36:56.703Z,4.39
2022-12-02T01:37:56.677Z,4.43
2022-12-02T01:38:56.659Z,4.43
2022-12-02T01:39:56.627Z,4.40
2022-12-02T01:40:56.615Z,4.42
2022-12-02T01:41:56.574Z,4.39
2022-12-02T01:42:56.547Z,4.43
2022-12-02T01:43:56.525Z,4.40
2022-12-02T01:44:56.489Z,4.42
2022-12-02T01:45:56.517Z,4.39
2022-12-02T01:46:56.474Z,4.39
2022-12-02T01:47:56.420Z,4.40
2022-12-02T01:48:56.389Z,4.40
2022-12-02T01:49:56.365Z,4.34
2022-12-02T01:50:56.360Z,4.34
2022-12-02T01:51:56.322Z,4.37
2022-12-02T01:52:58.420Z,4.44
2022-12-02T01:53:56.269Z,4.37
2022-12-02T01:54:56.236Z,4.34
2022-12-02T01:55:56.211Z,4.34
2022-12-02T01:56:56.190Z,4.40
2022-12-02T01:57:56.163Z,4.36
2022-12-02T01:58:56.137Z,4.43
2022-12-02T01:59:56.109Z,4.39
2022-12-02T02:00:56.146Z,4.37
2022-12-02T02:01:56.136Z,4.39
2022-12-02T02:02:56.025Z,4.36
2022-12-02T02:03:56.008Z,4.40
2022-12-02T02:04:55.979Z,4.43
2022-12-02T02:05:55.956Z,4.50
2022-12-02T02:06:55.929Z,4.40
2022-12-02T02:07:55.996Z,4.39
2022-12-02T02:08:55.876Z,4.47
2022-12-02T02:09:55.851Z,4.34
2022-12-02T02:10:55.827Z,4.37
2022-12-02T02:11:55.800Z,4.36
2022-12-02T02:12:55.774Z,4.39
2022-12-02T02:13:55.752Z,4.36
2022-12-02T02:14:55.720Z,4.40
2022-12-02T02:15:55.698Z,4.34
2022-12-02T02:16:55.853Z,4.43
2022-12-02T02:17:57.629Z,4.44
2022-12-02T02:18:55.617Z,4.43
2022-12-02T02:19:55.592Z,4.46
2022-12-02T02:20:55.585Z,4.40
2022-12-02T02:21:55.544Z,4.46
2022-12-02T02:22:55.514Z,4.51
2022-12-02T02:23:55.493Z,4.47
2022-12-02T02:24:55.462Z,4.42
2022-12-02T02:25:55.436Z,4.52
2022-12-02T02:26:55.409Z,4.39
2022-12-02T02:27:55.398Z,4.37
2022-12-02T02:28:55.371Z,4.40
2022-12-02T02:29:55.339Z,4.39
2022-12-02T02:30:55.390Z,4.43
2022-12-02T02:31:55.280Z,4.44
2022-12-02T02:32:55.258Z,4.37
2022-12-02T02:33:55.233Z,4.40
2022-12-02T02:34:55.216Z,4.36
2022-12-02T02:35:55.177Z,4.36
2022-12-02T02:36:55.159Z,4.37
2022-12-02T02:37:55.132Z,4.40
2022-12-02T02:38:55.104Z,4.36
2022-12-02T02:39:55.080Z,4.40
2022-12-02T02:40:55.051Z,4.39
2022-12-02T02:41:55.035Z,4.36
2022-12-02T02:42:55.000Z,4.43
2022-12-02T02:43:54.971Z,4.36
2022-12-02T02:44:54.944Z,4.34
2022-12-02T02:45:54.970Z,4.40
2022-12-02T02:46:54.895Z,4.37
2022-12-02T02:47:54.871Z,4.36
2022-12-02T02:48:54.851Z,4.40
2022-12-02T02:49:54.821Z,4.39
2022-12-02T02:50:54.791Z,4.32
2022-12-02T02:51:54.769Z,4.37
2022-12-02T02:52:54.737Z,4.34
2022-12-02T02:53:54.714Z,4.34
2022-12-02T02:54:54.711Z,4.36
2022-12-02T02:55:54.757Z,4.37
2022-12-02T02:56:54.652Z,4.34
2022-12-02T02:57:54.613Z,4.34
2022-12-02T02:58:54.581Z,4.33
2022-12-02T02:59:54.566Z,4.34
2022-12-02T03:00:54.628Z,4.26
2022-12-02T03:01:54.666Z,4.33
2022-12-02T03:02:54.539Z,4.25
2022-12-02T03:03:54.457Z,4.26
2022-12-02T03:04:54.472Z,4.33
2022-12-02T03:05:54.408Z,4.28
2022-12-02T03:06:54.379Z,4.28
2022-12-02T03:07:54.457Z,4.34
2022-12-02T03:08:54.331Z,4.36
2022-12-02T03:09:54.310Z,4.34
2022-12-02T03:10:54.275Z,4.25
2022-12-02T03:11:54.253Z,4.33
2022-12-02T03:12:54.218Z,4.32
2022-12-02T03:13:54.200Z,4.32
2022-12-02T03:14:54.170Z,4.37
2022-12-02T03:15:54.153Z,4.28
2022-12-02T03:16:54.147Z,4.28
2022-12-02T03:17:54.096Z,4.33
2022-12-02T03:18:54.091Z,4.36
2022-12-02T03:19:54.045Z,4.25
2022-12-02T03:20:54.017Z,4.29
2022-12-02T03:21:54.024Z,4.33
2022-12-02T03:22:53.961Z,4.32
2022-12-02T03:23:53.946Z,4.26
2022-12-02T03:24:54.138Z,4.28
2022-12-02T03:25:53.895Z,4.28
2022-12-02T03:26:53.893Z,4.29
2022-12-02T03:27:53.838Z,4.26
2022-12-02T03:28:53.814Z,4.34
2022-12-02T03:29:53.787Z,4.26
2022-12-02T03:30:53.818Z,4.33
2022-12-02T03:31:53.758Z,4.25
2022-12-02T03:32:53.707Z,4.26
2022-12-02T03:33:53.684Z,4.28
2022-12-02T03:34:53.803Z,4.24
2022-12-02T03:35:53.632Z,4.28
2022-12-02T03:36:53.601Z,4.22
2022-12-02T03:37:53.580Z,4.26
2022-12-02T03:38:53.572Z,4.25
2022-12-02T03:39:53.529Z,4.25
2022-12-02T03:40:53.517Z,4.34
2022-12-02T03:41:53.476Z,4.34
2022-12-02T03:42:53.453Z,4.26
2022-12-02T03:43:53.422Z,4.22
2022-12-02T03:44:53.634Z,4.25
2022-12-02T03:45:53.457Z,4.26
2022-12-02T03:46:53.372Z,4.26
2022-12-02T03:47:53.318Z,4.26
2022-12-02T03:48:53.294Z,4.37
2022-12-02T03:49:53.269Z,4.29
2022-12-02T03:50:53.251Z,4.28
2022-12-02T03:51:53.227Z,4.25
2022-12-02T03:52:53.187Z,4.22
2022-12-02T03:53:53.167Z,4.28
2022-12-02T03:54:55.404Z,4.18
2022-12-02T03:55:53.114Z,4.28
2022-12-02T03:56:53.102Z,4.16
2022-12-02T03:57:53.062Z,4.29
2022-12-02T03:58:53.070Z,4.26
2022-12-02T03:59:53.012Z,4.26
2022-12-02T04:00:52.989Z,4.22
2022-12-02T04:01:53.032Z,4.19
2022-12-02T04:02:52.997Z,4.15
2022-12-02T04:03:52.904Z,4.29
2022-12-02T04:04:53.248Z,4.28
2022-12-02T04:05:52.857Z,4.25
2022-12-02T04:06:52.827Z,4.26
2022-12-02T04:07:52.859Z,4.18
2022-12-02T04:08:52.780Z,4.24
2022-12-02T04:09:52.754Z,4.18
2022-12-02T04:10:52.722Z,4.10
2022-12-02T04:11:52.702Z,4.22
2022-12-02T04:12:52.672Z,4.26
2022-12-02T04:13:52.651Z,4.14
2022-12-02T04:14:52.964Z,4.19
2022-12-02T04:15:52.653Z,4.14
2022-12-02T04:16:52.570Z,4.18
2022-12-02T04:17:52.554Z,4.15
2022-12-02T04:18:52.521Z,4.18
2022-12-02T04:19:52.501Z,4.16
2022-12-02T04:20:52.463Z,4.16
2022-12-02T04:21:52.443Z,4.15
2022-12-02T04:22:52.421Z,4.22
2022-12-02T04:23:52.413Z,4.10
2022-12-02T04:24:52.723Z,4.18
2022-12-02T04:25:52.341Z,4.16
2022-12-02T04:26:52.313Z,4.18
2022-12-02T04:27:52.288Z,4.21
2022-12-02T04:28:52.265Z,4.15
2022-12-02T04:29:52.236Z,4.15
2022-12-02T04:30:52.250Z,4.15
2022-12-02T04:31:52.187Z,4.16
2022-12-02T04:32:52.156Z,4.15
2022-12-02T04:33:52.130Z,4.12
2022-12-02T04:34:52.372Z,4.14
2022-12-02T04:35:52.099Z,4.16
2022-12-02T04:36:52.063Z,4.16
2022-12-02T04:37:52.032Z,4.15
2022-12-02T04:38:52.002Z,4.16
2022-12-02T04:39:51.979Z,4.06
2022-12-02T04:40:51.974Z,4.12
2022-12-02T04:41:51.929Z,4.15
2022-12-02T04:42:51.895Z,4.15
2022-12-02T04:43:51.873Z,4.07
2022-12-02T04:44:52.102Z,4.16
2022-12-02T04:45:51.823Z,4.18
2022-12-02T04:46:51.837Z,4.14
2022-12-02T04:47:51.765Z,4.19
2022-12-02T04:48:51.769Z,4.16
2022-12-02T04:49:51.715Z,4.08
2022-12-02T04:50:51.696Z,4.12
2022-12-02T04:51:51.667Z,4.12
2022-12-02T04:52:51.643Z,4.12
2022-12-02T04:53:51.616Z,4.12
2022-12-02T04:54:51.732Z,4.06
2022-12-02T04:55:51.559Z,4.08
2022-12-02T04:56:51.561Z,4.08
2022-12-02T04:57:51.511Z,4.16
2022-12-02T04:58:51.487Z,4.15
2022-12-02T04:59:51.462Z,4.18
2022-12-02T05:00:51.427Z,4.16
2022-12-02T05:01:51.406Z,4.08
2022-12-02T05:02:51.446Z,4.06
2022-12-02T05:03:51.443Z,4.12
2022-12-02T05:04:51.344Z,4.14
2022-12-02T05:05:51.320Z,4.18
2022-12-02T05:06:51.320Z,4.18
2022-12-02T05:07:51.336Z,4.18
2022-12-02T05:08:51.219Z,4.10
2022-12-02T05:09:51.215Z,4.04
2022-12-02T05:10:51.177Z,4.12
2022-12-02T05:11:51.146Z,4.04
2022-12-02T05:12:51.144Z,4.15
2022-12-02T05:13:51.095Z,4.12
2022-12-02T05:14:51.288Z,4.12
2022-12-02T05:15:51.100Z,4.16
2022-12-02T05:16:51.019Z,4.15
2022-12-02T05:17:50.987Z,4.10
2022-12-02T05:18:50.967Z,4.16
2022-12-02T05:19:50.937Z,4.18
2022-12-02T05:20:50.914Z,4.16
2022-12-02T05:21:50.906Z,4.15
2022-12-02T05:22:50.867Z,4.18
2022-12-02T05:23:50.864Z,4.08
2022-12-02T05:24:51.099Z,4.12
2022-12-02T05:25:50.782Z,4.16
2022-12-02T05:26:50.759Z,4.16
2022-12-02T05:27:50.734Z,4.14
2022-12-02T05:28:50.711Z,4.10
2022-12-02T05:29:50.708Z,4.12
2022-12-02T05:30:50.665Z,4.15
2022-12-02T05:31:50.684Z,4.12
2022-12-02T05:32:50.611Z,4.14
2022-12-02T05:33:50.572Z,4.16
2022-12-02T05:34:50.921Z,4.21
2022-12-02T05:35:50.518Z,4.18
2022-12-02T05:36:50.510Z,4.21
2022-12-02T05:37:50.490Z,4.18
2022-12-02T05:38:50.446Z,4.15
2022-12-02T05:39:50.418Z,4.12
2022-12-02T05:40:50.406Z,4.22
2022-12-02T05:41:50.368Z,4.16
2022-12-02T05:42:50.347Z,4.14
2022-12-02T05:43:50.321Z,4.19
2022-12-02T05:44:50.301Z,4.16
2022-12-02T05:45:50.267Z,4.14
2022-12-02T05:46:50.371Z,4.16
2022-12-02T05:47:50.217Z,4.19
2022-12-02T05:48:50.189Z,4.15
2022-12-02T05:49:50.161Z,4.21
2022-12-02T05:50:50.141Z,4.14
2022-12-02T05:51:54.032Z,4.22
2022-12-02T05:52:50.191Z,4.14
2022-12-02T05:53:50.066Z,4.12
2022-12-02T05:54:50.379Z,4.18
2022-12-02T05:55:50.017Z,4.16
2022-12-02T05:56:50.023Z,4.25
2022-12-02T05:57:49.955Z,4.12
2022-12-02T05:58:49.926Z,4.22
2022-12-02T05:59:49.919Z,4.21
2022-12-02T06:00:49.891Z,4.18
2022-12-02T06:01:49.974Z,4.18
2022-12-02T06:02:49.986Z,4.21
2022-12-02T06:03:49.797Z,4.18
2022-12-02T06:04:49.973Z,4.16
2022-12-02T06:05:49.747Z,4.22
2022-12-02T06:06:49.775Z,4.24
2022-12-02T06:07:49.761Z,4.24
2022-12-02T06:08:49.672Z,4.16
2022-12-02T06:09:49.639Z,4.12
2022-12-02T06:10:49.625Z,4.22
2022-12-02T06:11:49.590Z,4.22
2022-12-02T06:12:49.568Z,4.29
2022-12-02T06:13:49.542Z,4.16
2022-12-02T06:14:49.855Z,4.33
2022-12-02T06:15:49.514Z,4.25
2022-12-02T06:16:49.551Z,4.24
2022-12-02T06:17:49.445Z,4.22
2022-12-02T06:18:49.415Z,4.25
2022-12-02T06:19:49.388Z,4.24
2022-12-02T06:20:49.366Z,4.24
2022-12-02T06:21:49.333Z,4.28
2022-12-02T06:22:49.309Z,4.15
2022-12-02T06:23:49.288Z,4.28
2022-12-02T06:24:49.551Z,4.32
2022-12-02T06:25:49.251Z,4.28
2022-12-02T06:26:49.205Z,4.28
2022-12-02T06:27:49.180Z,4.29
2022-12-02T06:28:49.150Z,4.25
2022-12-02T06:29:49.122Z,4.19
2022-12-02T06:30:49.102Z,4.25
2022-12-02T06:31:49.115Z,4.24
2022-12-02T06:32:49.052Z,4.22
2022-12-02T06:33:49.040Z,4.25
2022-12-02T06:34:49.277Z,4.25
2022-12-02T06:35:48.999Z,4.26
2022-12-02T06:36:48.949Z,4.25
2022-12-02T06:37:48.920Z,4.25
2022-12-02T06:38:48.897Z,4.22
2022-12-02T06:40:20.033Z,4.19
2022-12-02T06:40:48.840Z,4.28
2022-12-02T06:41:48.814Z,4.26
2022-12-02T06:42:48.791Z,4.26
2022-12-02T06:43:48.793Z,4.33
2022-12-02T06:44:48.980Z,4.29
2022-12-02T06:45:48.780Z,4.28
2022-12-02T06:46:48.691Z,4.21
2022-12-02T06:47:48.659Z,4.15
2022-12-02T06:48:48.631Z,4.19
2022-12-02T06:49:48.608Z,4.25
2022-12-02T06:50:48.588Z,4.16
2022-12-02T06:51:48.550Z,4.18
2022-12-02T06:52:48.531Z,4.29
2022-12-02T06:53:48.588Z,4.22
2022-12-02T06:54:48.583Z,4.24
2022-12-02T06:55:48.451Z,4.18
2022-12-02T06:56:48.426Z,4.22
2022-12-02T06:57:48.407Z,4.33
2022-12-02T06:58:48.375Z,4.28
2022-12-02T06:59:48.345Z,4.25
2022-12-02T07:00:48.434Z,4.29
2022-12-02T07:01:48.389Z,4.18
2022-12-02T07:02:48.353Z,4.28
2022-12-02T07:03:48.260Z,4.26
2022-12-02T07:04:48.339Z,4.25
2022-12-02T07:05:48.186Z,4.26
2022-12-02T07:06:48.184Z,4.25
2022-12-02T07:07:48.198Z,4.22
2022-12-02T07:08:48.125Z,4.28
2022-12-02T07:09:48.081Z,4.19
2022-12-02T07:10:48.117Z,4.26
2022-12-02T07:11:48.041Z,4.25
2022-12-02T07:12:48.027Z,4.22
2022-12-02T07:13:47.978Z,4.26
2022-12-02T07:14:47.961Z,4.26
2022-12-02T07:15:47.926Z,4.16
2022-12-02T07:16:47.932Z,4.22
2022-12-02T07:17:47.892Z,4.16
2022-12-02T07:18:47.876Z,4.18
2022-12-02T07:19:47.827Z,4.21
2022-12-02T07:20:47.807Z,4.19
2022-12-02T07:21:53.052Z,4.21
2022-12-02T07:22:47.751Z,4.24
2022-12-02T07:23:47.724Z,4.16
2022-12-02T07:24:47.703Z,4.12
2022-12-02T07:25:47.667Z,4.12
2022-12-02T07:26:47.649Z,4.10
2022-12-02T07:27:47.643Z,4.08
2022-12-02T07:28:47.605Z,4.10
2022-12-02T07:29:47.622Z,4.12
2022-12-02T07:30:47.586Z,4.07
2022-12-02T07:31:47.525Z,4.08
2022-12-02T07:32:47.493Z,4.14
2022-12-02T07:33:47.476Z,4.15
2022-12-02T07:34:47.459Z,4.08
2022-12-02T07:35:47.406Z,4.07
2022-12-02T07:36:47.391Z,4.16
2022-12-02T07:37:47.356Z,4.03
2022-12-02T07:39:47.312Z,4.08
2022-12-02T07:40:47.286Z,4.15
2022-12-02T07:41:47.262Z,4.04
2022-12-02T07:42:47.256Z,4.07
2022-12-02T07:43:47.203Z,3.97
2022-12-02T07:44:47.180Z,4.04
2022-12-02T07:45:47.190Z,4.04
2022-12-02T07:46:47.129Z,4.03
2022-12-02T07:47:47.100Z,4.04
2022-12-02T07:48:47.079Z,4.04
2022-12-02T07:49:47.047Z,4.07
2022-12-02T07:50:47.022Z,4.08
2022-12-02T07:51:46.995Z,4.16
2022-12-02T07:52:46.970Z,4.07
2022-12-02T07:53:46.963Z,4.07
2022-12-02T07:54:46.921Z,4.00
2022-12-02T07:55:46.896Z,4.08
2022-12-02T07:56:46.867Z,4.06
2022-12-02T07:57:46.837Z,4.16
2022-12-02T07:59:13.152Z,4.12
2022-12-02T07:59:46.798Z,4.10
2022-12-02T08:00:46.762Z,4.07
2022-12-02T08:01:46.833Z,4.07
2022-12-02T08:02:46.732Z,4.10
2022-12-02T08:03:46.698Z,4.00
2022-12-02T08:04:46.718Z,4.12
2022-12-02T08:05:46.649Z,4.16
2022-12-02T08:06:46.607Z,4.07
2022-12-02T08:07:46.631Z,3.97
2022-12-02T08:08:46.556Z,4.00
2022-12-02T08:09:46.525Z,4.00
2022-12-02T08:10:46.506Z,4.07
2022-12-02T08:11:46.477Z,4.00
2022-12-02T08:12:46.455Z,3.96
2022-12-02T08:13:46.422Z,4.00
2022-12-02T08:14:46.417Z,4.07
2022-12-02T08:15:49.796Z,3.98
2022-12-02T08:16:46.419Z,3.94
2022-12-02T08:17:46.325Z,4.00
2022-12-02T08:18:46.297Z,4.03
2022-12-02T08:19:46.284Z,4.00
2022-12-02T08:20:46.247Z,4.03
2022-12-02T08:21:46.218Z,4.00
2022-12-02T08:22:46.191Z,3.92
2022-12-02T08:23:46.159Z,4.03
2022-12-02T08:24:46.141Z,4.03
2022-12-02T08:25:46.112Z,3.98
2022-12-02T08:26:46.099Z,3.97
2022-12-02T08:27:46.060Z,3.97
2022-12-02T08:28:49.554Z,4.00
2022-12-02T08:29:46.069Z,3.96
2022-12-02T08:30:46.039Z,3.98
2022-12-02T08:31:45.951Z,3.89
2022-12-02T08:32:45.930Z,3.98
2022-12-02T08:33:45.906Z,3.97
2022-12-02T08:34:45.882Z,3.96
2022-12-02T08:35:45.854Z,4.00
2022-12-02T08:36:45.825Z,4.01
2022-12-02T08:37:45.797Z,3.90
2022-12-02T08:38:45.775Z,3.92
2022-12-02T08:39:45.769Z,3.94
2022-12-02T08:40:45.725Z,3.97
2022-12-02T08:41:45.705Z,3.89
2022-12-02T08:42:45.669Z,4.00
2022-12-02T08:43:46.224Z,4.00
2022-12-02T08:44:45.621Z,3.92
2022-12-02T08:45:45.657Z,3.88
2022-12-02T08:46:50.926Z,3.97
2022-12-02T08:47:45.549Z,3.90
2022-12-02T08:48:45.517Z,4.00
2022-12-02T08:49:45.487Z,4.00
2022-12-02T08:50:45.465Z,4.01
2022-12-02T08:51:45.443Z,4.01
2022-12-02T08:52:45.413Z,3.98
2022-12-02T08:53:45.387Z,4.14
2022-12-02T08:54:45.453Z,4.06
2022-12-02T08:55:45.341Z,3.97
2022-12-02T08:56:45.313Z,3.97
2022-12-02T08:57:45.281Z,3.97
2022-12-02T08:58:45.264Z,4.04
2022-12-02T08:59:45.227Z,4.03
2022-12-02T09:00:45.237Z,3.97
2022-12-02T09:01:45.220Z,4.00
2022-12-02T09:02:45.199Z,3.97
2022-12-02T09:03:45.122Z,4.03
2022-12-02T09:04:45.102Z,4.04
2022-12-02T09:05:45.082Z,4.10
2022-12-02T09:06:45.057Z,4.08
2022-12-02T09:07:45.061Z,4.07
2022-12-02T09:08:45.062Z,4.04
2022-12-02T09:09:45.009Z,4.08
2022-12-02T09:10:44.979Z,4.14
2022-12-02T09:11:44.921Z,4.12
2022-12-02T09:12:44.902Z,4.07
2022-12-02T09:13:44.880Z,4.12
2022-12-02T09:14:44.843Z,4.15
2022-12-02T09:15:44.832Z,4.07
2022-12-02T09:16:44.794Z,4.12
2022-12-02T09:17:44.764Z,4.16
2022-12-02T09:18:44.740Z,4.18
2022-12-02T09:19:44.714Z,4.18
2022-12-02T09:20:44.696Z,4.21
2022-12-02T09:21:44.671Z,4.16
2022-12-02T09:22:44.638Z,4.16
2022-12-02T09:23:50.210Z,4.18
2022-12-02T09:24:44.587Z,4.26
2022-12-02T09:25:44.569Z,4.16
2022-12-02T09:26:44.532Z,4.16
2022-12-02T09:27:44.502Z,4.14
2022-12-02T09:28:44.532Z,4.16
2022-12-02T09:29:44.454Z,4.22
2022-12-02T09:30:44.506Z,4.24
2022-12-02T09:31:44.483Z,4.26
2022-12-02T09:32:44.371Z,4.24
2022-12-02T09:33:44.350Z,4.28
2022-12-02T09:34:44.356Z,4.25
2022-12-02T09:35:44.309Z,4.36
2022-12-02T09:36:44.272Z,4.34
2022-12-02T09:37:44.256Z,4.39
2022-12-02T09:38:44.273Z,4.32
2022-12-02T09:39:44.192Z,4.28
2022-12-02T09:40:44.168Z,4.36
2022-12-02T09:41:44.152Z,4.33
2022-12-02T09:42:44.123Z,4.37
2022-12-02T09:43:44.091Z,4.22
2022-12-02T09:44:44.064Z,4.26
2022-12-02T09:45:44.048Z,4.22
2022-12-02T09:46:44.076Z,4.22
2022-12-02T09:47:43.988Z,4.25
2022-12-02T09:48:43.965Z,4.25
2022-12-02T09:49:43.936Z,4.26
2022-12-02T09:50:43.909Z,4.26
2022-12-02T09:51:43.889Z,4.24
2022-12-02T09:52:43.852Z,4.24
2022-12-02T09:53:43.838Z,4.33
2022-12-02T09:54:43.803Z,4.36
2022-12-02T09:55:43.808Z,4.34
2022-12-02T09:56:43.763Z,4.28
2022-12-02T09:57:43.838Z,4.36
2022-12-02T09:58:43.700Z,4.28
2022-12-02T09:59:43.680Z,4.33
2022-12-02T10:00:43.651Z,4.26
2022-12-02T10:01:43.670Z,4.36
2022-12-02T10:02:43.625Z,4.36
2022-12-02T10:03:43.589Z,4.32
2022-12-02T10:04:43.555Z,4.32
2022-12-02T10:05:43.527Z,4.25
2022-12-02T10:06:43.498Z,4.25
2022-12-02T10:07:43.551Z,4.34
2022-12-02T10:08:43.441Z,4.25
2022-12-02T10:09:43.427Z,4.29
2022-12-02T10:10:43.391Z,4.16
2022-12-02T10:11:43.371Z,4.22
2022-12-02T10:12:43.353Z,4.18
2022-12-02T10:13:43.330Z,4.19
2022-12-02T10:14:43.286Z,4.25
2022-12-02T10:15:43.349Z,4.15
2022-12-02T10:16:43.264Z,4.25
2022-12-02T10:17:43.218Z,4.32
2022-12-02T10:18:43.189Z,4.19
2022-12-02T10:19:43.165Z,4.24
2022-12-02T10:20:43.140Z,4.22
2022-12-02T10:21:43.112Z,4.16
2022-12-02T10:22:43.079Z,4.26
2022-12-02T10:23:43.062Z,4.10
2022-12-02T10:24:43.032Z,4.19
2022-12-02T10:25:43.010Z,4.18
2022-12-02T10:26:42.989Z,4.12
2022-12-02T10:27:42.960Z,4.04
2022-12-02T10:28:42.934Z,4.14
2022-12-02T10:29:46.207Z,4.08
2022-12-02T10:30:42.877Z,4.01
2022-12-02T10:31:42.911Z,4.15
2022-12-02T10:32:42.829Z,4.04
2022-12-02T10:33:42.806Z,4.08
2022-12-02T10:34:42.773Z,4.07
2022-12-02T10:35:42.748Z,4.00
2022-12-02T10:36:42.719Z,3.98
2022-12-02T10:37:42.702Z,4.04
2022-12-02T10:38:42.667Z,4.00
2022-12-02T10:39:42.645Z,3.89
2022-12-02T10:40:42.646Z,3.96
2022-12-02T10:41:42.592Z,3.97
2022-12-02T10:42:42.571Z,3.94
2022-12-02T10:43:42.542Z,3.97
2022-12-02T10:44:42.527Z,3.98
2022-12-02T10:45:42.494Z,3.83
2022-12-02T10:46:42.583Z,3.83
2022-12-02T10:47:42.440Z,3.92
2022-12-02T10:48:42.416Z,3.86
2022-12-02T10:49:42.384Z,3.85
2022-12-02T10:50:42.366Z,3.85
2022-12-02T10:51:42.355Z,3.85
2022-12-02T10:52:44.351Z,3.85
2022-12-02T10:53:42.288Z,3.80
2022-12-02T10:54:43.907Z,3.78
2022-12-02T10:55:42.236Z,3.78
2022-12-02T10:56:42.203Z,3.76
2022-12-02T10:57:42.183Z,3.75
2022-12-02T10:58:42.152Z,3.72
2022-12-02T10:59:42.131Z,3.75
2022-12-02T11:00:44.366Z,3.72
2022-12-02T11:01:42.230Z,3.76
2022-12-02T11:02:42.152Z,3.75
2022-12-02T11:03:42.023Z,3.72
2022-12-02T11:04:41.993Z,3.76
2022-12-02T11:05:41.974Z,3.82
2022-12-02T11:06:41.949Z,3.72
2022-12-02T11:07:42.009Z,3.76
2022-12-02T11:08:41.890Z,3.78
2022-12-02T11:09:41.972Z,3.78
2022-12-02T11:10:41.839Z,3.75
2022-12-02T11:11:41.821Z,3.72
2022-12-02T11:12:41.788Z,3.72
2022-12-02T11:13:46.531Z,3.83
2022-12-02T11:14:41.733Z,3.80
2022-12-02T11:15:41.714Z,3.76
2022-12-02T11:16:52.946Z,3.76
2022-12-02T11:17:41.682Z,3.72
2022-12-02T11:18:41.636Z,3.76
2022-12-02T11:19:41.611Z,3.72
2022-12-02T11:20:41.581Z,3.76
2022-12-02T11:21:41.555Z,3.79
2022-12-02T11:22:41.524Z,3.83
2022-12-02T11:23:41.502Z,3.75
2022-12-02T11:24:41.472Z,3.78
2022-12-02T11:25:41.450Z,3.78
2022-12-02T11:26:41.423Z,3.79
2022-12-02T11:27:41.397Z,3.83
2022-12-02T11:28:41.392Z,3.71
2022-12-02T11:29:41.348Z,3.78
2022-12-02T11:30:41.368Z,3.85
2022-12-02T11:31:41.342Z,3.78
2022-12-02T11:32:41.270Z,3.83
2022-12-02T11:33:41.250Z,3.85
2022-12-02T11:35:14.953Z,3.79
2022-12-02T11:35:41.188Z,3.92
2022-12-02T11:36:41.190Z,3.83
2022-12-02T11:37:41.141Z,3.79
2022-12-02T11:38:41.111Z,3.78
2022-12-02T11:39:41.089Z,3.75
2022-12-02T11:40:41.070Z,3.75
2022-12-02T11:41:41.035Z,3.78
2022-12-02T11:42:41.028Z,3.75
2022-12-02T11:43:40.988Z,3.78
2022-12-02T11:44:40.958Z,3.83
2022-12-02T11:45:40.998Z,3.86
2022-12-02T11:46:40.914Z,3.88
2022-12-02T11:47:40.880Z,3.85
2022-12-02T11:48:40.851Z,3.75
2022-12-02T11:49:40.850Z,3.86
2022-12-02T11:50:40.795Z,3.72
2022-12-02T11:51:40.773Z,3.83
2022-12-02T11:52:40.752Z,3.79
2022-12-02T11:53:40.731Z,3.78
2022-12-02T11:54:40.712Z,3.78
2022-12-02T11:55:40.675Z,3.78
2022-12-02T11:56:40.799Z,3.83
2022-12-02T11:57:40.631Z,3.82
2022-12-02T11:58:40.612Z,3.79
2022-12-02T11:59:40.572Z,3.88
2022-12-02T12:00:40.536Z,3.88
2022-12-02T12:01:40.524Z,3.89
2022-12-02T12:02:40.516Z,3.90
2022-12-02T12:03:40.536Z,3.89
2022-12-02T12:04:40.446Z,3.92
2022-12-02T12:05:40.412Z,3.92
2022-12-02T12:06:40.387Z,3.92
2022-12-02T12:07:40.417Z,3.89
2022-12-02T12:08:40.338Z,3.97
2022-12-02T12:09:40.308Z,3.92
2022-12-02T12:10:40.302Z,3.90
2022-12-02T12:11:40.256Z,3.86
2022-12-02T12:12:40.225Z,3.98
2022-12-02T12:13:40.204Z,3.90
2022-12-02T12:14:40.182Z,3.90
2022-12-02T12:15:40.156Z,3.92
2022-12-02T12:16:40.152Z,3.85
2022-12-02T12:17:40.226Z,3.96
2022-12-02T12:18:40.120Z,4.01
2022-12-02T12:19:40.052Z,4.00
2022-12-02T12:20:40.017Z,4.01
2022-12-02T12:21:40.002Z,3.98
2022-12-02T12:22:39.968Z,3.98
2022-12-02T12:23:39.953Z,3.94
2022-12-02T12:24:39.913Z,3.97
2022-12-02T12:25:39.892Z,3.90
2022-12-02T12:26:39.864Z,3.90
2022-12-02T12:27:39.850Z,4.00
2022-12-02T12:28:39.814Z,3.97
2022-12-02T12:30:39.893Z,4.01
2022-12-02T12:31:39.807Z,3.96
2022-12-02T12:32:39.710Z,4.03
2022-12-02T12:33:39.691Z,4.03
2022-12-02T12:34:39.659Z,4.00
2022-12-02T12:35:39.632Z,4.01
2022-12-02T12:36:39.613Z,3.94
2022-12-02T12:37:39.719Z,4.04
2022-12-02T12:38:39.560Z,4.15
2022-12-02T12:39:39.536Z,4.14
2022-12-02T12:40:39.507Z,4.07
2022-12-02T12:42:39.454Z,4.01
2022-12-02T12:43:39.521Z,4.01
2022-12-02T12:44:39.407Z,4.00
2022-12-02T12:45:39.457Z,4.10
2022-12-02T12:46:39.461Z,4.07
2022-12-02T12:47:39.378Z,4.12
2022-12-02T12:48:39.301Z,4.07
2022-12-02T12:49:39.318Z,4.01
2022-12-02T12:50:39.243Z,4.01
2022-12-02T12:51:39.222Z,4.00
2022-12-02T12:52:39.194Z,3.97
2022-12-02T12:53:39.172Z,3.92
2022-12-02T12:54:39.160Z,3.92
2022-12-02T12:55:39.117Z,3.89
2022-12-02T12:56:39.082Z,3.94
2022-12-02T12:57:39.140Z,3.94
2022-12-02T12:58:39.031Z,3.89
2022-12-02T12:59:39.011Z,3.94
2022-12-02T13:00:38.983Z,3.89
2022-12-02T13:01:39.085Z,3.90
2022-12-02T13:02:38.999Z,3.89
2022-12-02T13:03:38.907Z,3.88
2022-12-02T13:04:38.877Z,3.92
2022-12-02T13:05:38.856Z,3.94
2022-12-02T13:06:42.189Z,3.94
2022-12-02T13:07:38.986Z,3.96
2022-12-02T13:08:38.779Z,3.90
2022-12-02T13:09:38.755Z,3.96
2022-12-02T13:10:38.721Z,3.98
2022-12-02T13:11:38.703Z,3.94
2022-12-02T13:12:38.671Z,3.92
2022-12-02T13:13:38.657Z,3.92
2022-12-02T13:14:38.637Z,3.83
2022-12-02T13:15:38.599Z,3.90
2022-12-02T13:16:38.664Z,3.86
2022-12-02T13:17:39.098Z,3.89
2022-12-02T13:18:38.517Z,3.94
2022-12-02T13:19:38.497Z,3.88
2022-12-02T13:20:38.472Z,3.94
2022-12-02T13:21:38.452Z,3.89